Time;durP1;ratioP1;P1;durP2;ratioP2;P2;SDS_P1;SDS_P2;PMS_P1;PMS_P2;Temp;Humidity;BMP_temperature;BMP_pressure;BME280_temperature;BME280_humidity;BME280_pressure;Samples;Min_cycle;Max_cycle;Signal;HPM_P1;HPM_P2
2022/01/11 00:01:45;;;;;;;38.20;17.03;;;1.80;99.90;;;;;;4934698;29;20070;-89
2022/01/11 00:04:15;;;;;;;43.17;17.10;;;1.90;99.90;;;;;;4934979;29;20045;-87
2022/01/11 00:06:49;;;;;;;38.20;16.63;;;1.90;99.90;;;;;;4934679;29;20039;-88
2022/01/11 00:09:40;;;;;;;36.33;16.40;;;1.90;99.90;;;;;;4934906;29;20086;-88
2022/01/11 00:12:06;;;;;;;38.87;16.90;;;1.80;99.90;;;;;;4934459;29;20045;-88
2022/01/11 00:14:32;;;;;;;40.50;16.43;;;1.80;99.90;;;;;;4934523;29;20039;-88
2022/01/11 00:16:59;;;;;;;34.63;16.13;;;1.80;99.90;;;;;;4934449;29;20463;-88
2022/01/11 00:19:25;;;;;;;36.27;15.20;;;1.90;99.90;;;;;;4934421;29;20032;-88
2022/01/11 00:21:52;;;;;;;37.80;16.33;;;1.90;99.90;;;;;;4934263;29;20066;-88
2022/01/11 00:24:30;;;;;;;35.20;15.87;;;1.90;99.90;;;;;;4935766;29;20351;-88
2022/01/11 00:26:58;;;;;;;36.63;15.88;;;1.90;99.90;;;;;;4934596;29;20031;-88
2022/01/11 00:29:25;;;;;;;32.07;14.53;;;1.90;99.90;;;;;;4934180;29;20494;-89
2022/01/11 00:31:51;;;;;;;32.20;14.17;;;1.80;99.90;;;;;;4934088;29;20031;-88
2022/01/11 00:34:20;;;;;;;32.43;14.30;;;1.70;99.90;;;;;;4934054;29;20118;-89
2022/01/11 00:36:45;;;;;;;33.73;14.87;;;1.80;99.90;;;;;;4934081;29;20036;-89
2022/01/11 00:39:12;;;;;;;32.57;14.40;;;1.80;99.90;;;;;;4934062;29;20395;-89
2022/01/11 00:41:43;;;;;;;32.40;15.33;;;1.80;99.90;;;;;;4918377;29;20490;-88
2022/01/11 00:44:09;;;;;;;32.40;14.63;;;1.80;99.90;;;;;;4918380;29;20047;-89
2022/01/11 00:46:36;;;;;;;31.90;14.73;;;1.70;99.90;;;;;;4934109;29;20106;-89
2022/01/11 00:49:02;;;;;;;28.13;13.70;;;1.70;99.90;;;;;;4934157;29;20523;-89
2022/01/11 00:51:29;;;;;;;33.03;15.40;;;1.60;99.90;;;;;;4934041;29;20035;-89
2022/01/11 00:53:55;;;;;;;28.97;14.07;;;1.70;99.90;;;;;;4933925;29;20097;-89
2022/01/11 00:56:21;;;;;;;28.87;13.77;;;1.70;99.90;;;;;;4933694;29;20042;-89
2022/01/11 00:58:47;;;;;;;29.17;14.40;;;1.70;99.90;;;;;;4933892;29;20027;-89
2022/01/11 01:01:14;;;;;;;31.87;14.53;;;1.70;99.90;;;;;;4933824;29;20114;-89
2022/01/11 01:03:39;;;;;;;31.40;13.97;;;1.70;99.90;;;;;;4918114;29;20177;-88
2022/01/11 01:06:06;;;;;;;29.13;14.23;;;1.70;99.90;;;;;;4933842;29;20551;-88
2022/01/11 01:08:32;;;;;;;29.47;14.20;;;1.60;99.90;;;;;;4933563;29;20032;-89
2022/01/11 01:10:58;;;;;;;32.60;14.10;;;1.60;99.90;;;;;;4933710;29;20035;-89
2022/01/11 01:13:29;;;;;;;30.83;13.50;;;1.60;99.90;;;;;;4933424;29;20075;-89
2022/01/11 01:16:02;;;;;;;30.97;14.37;;;1.60;99.90;;;;;;4949673;29;20470;-89
2022/01/11 01:18:42;;;;;;;31.23;13.70;;;1.60;99.90;;;;;;4949640;29;20027;-89
2022/01/11 01:21:08;;;;;;;29.33;13.63;;;1.60;99.90;;;;;;4933578;29;20122;-88
2022/01/11 01:23:34;;;;;;;32.17;13.93;;;1.70;99.90;;;;;;4933814;29;20086;-88
2022/01/11 01:26:01;;;;;;;30.73;13.40;;;1.60;99.90;;;;;;4933555;29;20462;-89
2022/01/11 01:28:28;;;;;;;30.33;13.97;;;1.70;99.90;;;;;;4917665;29;20493;-89
2022/01/11 01:30:55;;;;;;;30.17;13.13;;;1.60;99.90;;;;;;4933512;29;20375;-89
2022/01/11 01:33:21;;;;;;;33.30;14.00;;;1.60;99.90;;;;;;4933487;29;20398;-89
2022/01/11 01:35:55;;;;;;;27.33;12.07;;;1.70;99.90;;;;;;4933627;29;20032;-88
2022/01/11 01:38:24;;;;;;;28.57;13.30;;;1.70;99.90;;;;;;4933647;29;20031;-89
2022/01/11 01:40:57;;;;;;;30.92;12.75;;;1.70;99.90;;;;;;4933586;29;20031;-89
2022/01/11 01:43:24;;;;;;;32.57;13.00;;;1.80;99.90;;;;;;4917880;29;20032;-89
2022/01/11 01:45:51;;;;;;;32.10;13.57;;;1.70;99.90;;;;;;4933455;29;20406;-89
2022/01/11 01:48:17;;;;;;;28.90;12.30;;;1.70;99.90;;;;;;4933461;29;20036;-88
2022/01/11 01:50:43;;;;;;;34.70;12.90;;;1.70;99.90;;;;;;4933659;29;20032;-89
2022/01/11 01:53:12;;;;;;;32.13;13.73;;;1.70;99.90;;;;;;4917658;29;20032;-89
2022/01/11 01:55:43;;;;;;;30.83;13.87;;;1.70;99.90;;;;;;4933198;29;20028;-88
2022/01/11 01:58:10;;;;;;;30.90;13.60;;;1.60;99.90;;;;;;4933513;29;20055;-90
2022/01/11 02:00:46;;;;;;;31.43;14.03;;;1.50;99.90;;;;;;4933325;29;20023;-89
2022/01/11 02:03:15;;;;;;;30.53;12.63;;;1.50;99.90;;;;;;4933290;29;20020;-89
2022/01/11 02:05:42;;;;;;;31.10;13.73;;;1.50;99.90;;;;;;4933631;29;20026;-88
2022/01/11 02:08:09;;;;;;;32.20;13.60;;;1.50;99.90;;;;;;4933308;29;20036;-89
2022/01/11 02:10:37;;;;;;;33.40;14.43;;;1.60;99.90;;;;;;4917343;29;20032;-89
2022/01/11 02:13:04;;;;;;;33.00;14.20;;;1.60;99.90;;;;;;4935049;29;20083;-89
2022/01/11 02:15:30;;;;;;;35.50;14.60;;;1.60;99.90;;;;;;4936656;29;20490;-88
2022/01/11 02:18:20;;;;;;;37.40;15.00;;;1.60;99.90;;;;;;4920940;29;20082;-89
2022/01/11 02:20:49;;;;;;;41.50;15.57;;;1.60;99.90;;;;;;4936337;29;20489;-89
2022/01/11 02:23:24;;;;;;;32.73;14.30;;;1.70;99.90;;;;;;4920754;29;20030;-89
2022/01/11 02:25:50;;;;;;;37.37;15.77;;;1.60;99.90;;;;;;4936417;29;20028;-89
2022/01/11 02:28:19;;;;;;;37.87;15.93;;;1.60;99.90;;;;;;4936642;29;20059;-89
2022/01/11 02:30:46;;;;;;;35.60;15.30;;;1.60;99.90;;;;;;4936291;29;20058;-89
2022/01/11 02:33:32;;;;;;;36.23;14.90;;;1.60;99.90;;;;;;4936254;29;20060;-88
2022/01/11 02:36:07;;;;;;;39.60;15.90;;;1.70;99.90;;;;;;4935425;29;20512;-89
2022/01/11 02:38:34;;;;;;;37.73;14.70;;;1.60;99.90;;;;;;4936340;29;20023;-88
2022/01/11 02:41:01;;;;;;;43.07;17.23;;;1.60;99.90;;;;;;4936147;29;20078;-89
2022/01/11 02:43:27;;;;;;;41.70;16.67;;;1.60;99.90;;;;;;4936260;29;20035;-89
2022/01/11 02:45:53;;;;;;;41.07;16.17;;;1.70;99.90;;;;;;4936195;29;20031;-89
2022/01/11 02:48:21;;;;;;;36.43;15.37;;;1.70;99.90;;;;;;4936143;29;20031;-89
2022/01/11 02:50:48;;;;;;;38.50;15.60;;;1.70;99.90;;;;;;4935930;29;20034;-89
2022/01/11 02:53:17;;;;;;;40.23;16.23;;;1.70;99.90;;;;;;4935763;29;20023;-88
2022/01/11 02:55:45;;;;;;;42.50;16.70;;;1.70;99.90;;;;;;4935935;29;20071;-89
2022/01/11 02:58:11;;;;;;;40.77;16.10;;;1.70;99.90;;;;;;4936021;29;20035;-88
2022/01/11 03:00:41;;;;;;;39.43;16.17;;;1.70;99.90;;;;;;4935993;29;20032;-89
2022/01/11 03:03:23;;;;;;;37.20;15.63;;;1.70;99.90;;;;;;4935947;29;20024;-88
2022/01/11 03:06:00;;;;;;;39.07;16.40;;;1.70;99.90;;;;;;4936057;29;20032;-89
2022/01/11 03:08:35;;;;;;;39.97;16.40;;;1.70;99.90;;;;;;4935501;29;20023;-88
2022/01/11 03:11:02;;;;;;;40.87;16.37;;;1.70;99.90;;;;;;4919889;29;20028;-89
2022/01/11 03:13:31;;;;;;;36.83;15.13;;;1.70;99.90;;;;;;4935430;29;20039;-89
2022/01/11 03:15:57;;;;;;;40.50;16.67;;;1.80;99.90;;;;;;4935603;29;20524;-90
2022/01/11 03:18:23;;;;;;;38.07;15.97;;;1.80;99.90;;;;;;4935541;29;20027;-89
2022/01/11 03:20:51;;;;;;;36.57;16.17;;;1.80;99.90;;;;;;4935370;29;20566;-89
2022/01/11 03:23:18;;;;;;;38.47;16.20;;;1.80;99.90;;;;;;4951383;28;20036;-88
2022/01/11 03:25:46;;;;;;;39.77;16.67;;;1.80;99.90;;;;;;4934912;29;20505;-89
2022/01/11 03:28:13;;;;;;;38.63;16.80;;;1.70;99.90;;;;;;4919582;29;20367;-88
2022/01/11 03:30:39;;;;;;;38.47;16.57;;;1.70;99.90;;;;;;4935141;29;20461;-90
2022/01/11 03:33:08;;;;;;;40.53;16.87;;;1.70;99.90;;;;;;4935264;29;20107;-89
2022/01/11 03:35:38;;;;;;;39.97;17.55;;;1.70;99.90;;;;;;4935159;29;20051;-89
2022/01/11 03:38:06;;;;;;;42.77;17.93;;;1.70;99.90;;;;;;4935105;29;20410;-89
2022/01/11 03:40:34;;;;;;;38.08;16.60;;;1.70;99.90;;;;;;4935217;29;20409;-89
2022/01/11 03:43:03;;;;;;;38.28;16.27;;;1.70;99.90;;;;;;4934887;29;20036;-88
2022/01/11 03:45:29;;;;;;;36.50;16.30;;;1.70;99.90;;;;;;4935171;29;20051;-89
2022/01/11 03:48:02;;;;;;;39.10;16.67;;;1.70;99.90;;;;;;4934347;29;20040;-88
2022/01/11 03:50:30;;;;;;;38.40;16.63;;;1.70;99.90;;;;;;4919292;29;20493;-89
2022/01/11 03:53:08;;;;;;;39.90;16.97;;;1.70;99.90;;;;;;4919022;29;20120;-89
2022/01/11 03:58:09;;;;;;;42.83;17.20;;;1.60;99.90;;;;;;4934717;29;20465;-89
2022/01/11 04:00:35;;;;;;;43.33;19.00;;;1.60;99.90;;;;;;4934630;29;20032;-89
2022/01/11 04:03:00;;;;;;;44.00;19.00;;;1.60;99.90;;;;;;4934758;29;20035;-89
2022/01/11 04:05:27;;;;;;;46.53;19.00;;;1.70;99.90;;;;;;4934936;29;20515;-89
2022/01/11 04:07:53;;;;;;;45.60;18.13;;;1.60;99.90;;;;;;4934565;29;20167;-89
2022/01/11 04:10:18;;;;;;;44.17;18.37;;;1.60;99.90;;;;;;4934483;29;20059;-88
2022/01/11 04:12:48;;;;;;;42.97;18.23;;;1.70;99.90;;;;;;4934852;29;20121;-89
2022/01/11 04:15:14;;;;;;;38.80;17.05;;;1.70;99.90;;;;;;4934533;29;20083;-89
2022/01/11 04:17:40;;;;;;;41.83;17.37;;;1.80;99.90;;;;;;4934653;29;20036;-89
2022/01/11 04:20:07;;;;;;;44.13;18.17;;;1.80;99.90;;;;;;4934383;29;20034;-88
2022/01/11 04:22:33;;;;;;;40.27;16.07;;;1.70;99.90;;;;;;4934501;29;20024;-88
2022/01/11 04:24:59;;;;;;;39.73;17.57;;;1.70;99.90;;;;;;4934298;29;20032;-89
2022/01/11 04:27:25;;;;;;;41.90;17.40;;;1.70;99.90;;;;;;4934454;29;20067;-89
2022/01/11 04:29:51;;;;;;;36.03;16.40;;;1.70;99.90;;;;;;4934260;29;20032;-89
2022/01/11 04:32:18;;;;;;;38.37;16.17;;;1.80;99.90;;;;;;4934180;29;20027;-89
2022/01/11 04:34:44;;;;;;;39.73;16.97;;;1.70;99.90;;;;;;4933905;29;20589;-89
2022/01/11 04:37:10;;;;;;;37.67;16.30;;;1.70;99.90;;;;;;4934081;29;20094;-89
2022/01/11 04:39:37;;;;;;;44.47;17.63;;;1.70;99.90;;;;;;4933987;29;20028;-89
2022/01/11 04:42:04;;;;;;;44.10;18.17;;;1.60;99.90;;;;;;4933882;29;20028;-88
2022/01/11 04:44:30;;;;;;;41.83;17.63;;;1.60;99.90;;;;;;4918351;29;20039;-89
2022/01/11 04:46:56;;;;;;;45.57;19.03;;;1.60;99.90;;;;;;4934038;29;20397;-89
2022/01/11 04:49:22;;;;;;;40.93;17.00;;;1.70;99.90;;;;;;4934208;29;20077;-88
2022/01/11 04:51:48;;;;;;;44.03;17.63;;;1.60;99.90;;;;;;4933813;29;20032;-88
2022/01/11 04:54:13;;;;;;;40.73;17.23;;;1.70;99.90;;;;;;4918147;29;20032;-88
2022/01/11 04:56:39;;;;;;;38.40;17.07;;;1.70;99.90;;;;;;4933956;29;20123;-87
2022/01/11 04:59:05;;;;;;;45.60;17.53;;;1.70;99.90;;;;;;4933840;29;20032;-88
2022/01/11 05:01:34;;;;;;;43.90;17.30;;;1.70;99.90;;;;;;4933351;29;20024;-88
2022/01/11 05:04:00;;;;;;;42.23;17.53;;;1.60;99.90;;;;;;4933953;29;20051;-87
2022/01/11 05:06:26;;;;;;;43.33;17.63;;;1.60;99.90;;;;;;4934055;29;20059;-88
2022/01/11 05:08:53;;;;;;;47.17;18.77;;;1.70;99.90;;;;;;4933515;29;20027;-88
2022/01/11 05:11:21;;;;;;;42.37;17.27;;;1.70;99.90;;;;;;4933758;29;20379;-89
2022/01/11 05:13:46;;;;;;;44.67;17.53;;;1.70;99.90;;;;;;4934122;29;20082;-88
2022/01/11 05:16:41;;;;;;;45.60;18.37;;;1.70;99.90;;;;;;4915151;29;20418;-88
2022/01/11 05:19:12;;;;;;;46.47;17.90;;;1.70;99.90;;;;;;4917883;29;20032;-88
2022/01/11 05:21:40;;;;;;;43.40;17.43;;;1.70;99.90;;;;;;4933633;29;20070;-88
2022/01/11 05:24:07;;;;;;;45.97;18.47;;;1.70;99.90;;;;;;4933617;29;20039;-88
2022/01/11 05:26:33;;;;;;;43.53;17.90;;;1.70;99.90;;;;;;4934055;29;20055;-88
2022/01/11 05:28:59;;;;;;;46.30;18.63;;;1.70;99.90;;;;;;4933722;29;20028;-88
2022/01/11 05:31:24;;;;;;;43.53;18.07;;;1.70;99.90;;;;;;4917886;29;20498;-88
2022/01/11 05:33:50;;;;;;;47.77;18.17;;;1.70;99.90;;;;;;4959608;23;20024;-89
2022/01/11 05:36:16;;;;;;;41.63;17.20;;;1.70;99.90;;;;;;4936921;29;20070;-89
2022/01/11 05:38:42;;;;;;;41.77;16.60;;;1.60;99.90;;;;;;4936650;29;20550;-90
2022/01/11 05:41:10;;;;;;;40.47;17.70;;;1.60;99.90;;;;;;4936861;29;20123;-89
2022/01/11 05:43:36;;;;;;;40.70;17.13;;;1.60;99.90;;;;;;4936708;29;20035;-89
2022/01/11 05:46:04;;;;;;;40.13;17.17;;;1.60;99.90;;;;;;4952335;28;20031;-89
2022/01/11 05:48:32;;;;;;;42.20;16.43;;;1.60;99.90;;;;;;4954936;29;20537;-89
2022/01/11 05:50:59;;;;;;;41.93;17.13;;;1.60;99.90;;;;;;4956295;28;20118;-90
2022/01/11 05:53:26;;;;;;;43.03;17.47;;;1.60;99.90;;;;;;4956487;28;20027;-89
2022/01/11 05:55:53;;;;;;;42.33;16.70;;;1.60;99.90;;;;;;4956212;28;20038;-88
2022/01/11 05:58:19;;;;;;;43.13;17.10;;;1.60;99.90;;;;;;4956132;28;20035;-89
2022/01/11 06:00:45;;;;;;;40.90;16.90;;;1.60;99.90;;;;;;4956048;28;20027;-89
2022/01/11 06:03:12;;;;;;;42.47;16.93;;;1.60;99.90;;;;;;4940141;29;20102;-89
2022/01/11 06:05:42;;;;;;;44.10;18.73;;;1.60;99.90;;;;;;4956220;29;20082;-89
2022/01/11 06:08:16;;;;;;;41.30;16.20;;;1.60;99.90;;;;;;4954880;29;20478;-89
2022/01/11 06:10:44;;;;;;;38.20;15.77;;;1.60;99.90;;;;;;4955917;29;20054;-89
2022/01/11 06:13:10;;;;;;;37.43;15.77;;;1.60;99.90;;;;;;4955725;28;20066;-90
2022/01/11 06:15:37;;;;;;;40.40;15.80;;;1.60;99.90;;;;;;4956402;28;20474;-89
2022/01/11 06:18:05;;;;;;;37.70;16.13;;;1.70;99.90;;;;;;4955851;28;20027;-89
2022/01/11 06:20:36;;;;;;;42.20;16.87;;;1.60;99.90;;;;;;4955311;29;20300;-89
2022/01/11 06:23:02;;;;;;;40.17;16.00;;;1.50;99.90;;;;;;4939924;29;20127;-89
2022/01/11 06:25:28;;;;;;;41.63;17.03;;;1.50;99.90;;;;;;4955730;28;20027;-89
2022/01/11 06:27:54;;;;;;;39.67;16.10;;;1.50;99.90;;;;;;4956263;28;20042;-89
2022/01/11 06:30:20;;;;;;;45.10;18.83;;;1.50;99.90;;;;;;4955371;29;20046;-89
2022/01/11 06:32:47;;;;;;;42.50;17.97;;;1.40;99.90;;;;;;4955294;29;20058;-89
2022/01/11 06:35:16;;;;;;;43.07;18.10;;;1.50;99.90;;;;;;4955487;28;20556;-89
2022/01/11 06:37:45;;;;;;;41.57;18.27;;;1.50;99.90;;;;;;4954741;29;20027;-89
2022/01/11 06:40:14;;;;;;;47.23;17.93;;;1.40;99.90;;;;;;4955237;28;20030;-89
2022/01/11 06:42:41;;;;;;;45.83;17.70;;;1.50;99.90;;;;;;4955357;28;20027;-89
2022/01/11 06:45:07;;;;;;;44.73;18.67;;;1.40;99.90;;;;;;4955257;28;20027;-89
2022/01/11 06:47:33;;;;;;;41.53;17.47;;;1.40;99.90;;;;;;4955012;29;20031;-90
2022/01/11 06:49:59;;;;;;;43.90;18.70;;;1.40;99.90;;;;;;4939562;29;20042;-89
2022/01/11 06:52:26;;;;;;;40.43;16.87;;;1.50;99.90;;;;;;4955141;28;20090;-89
2022/01/11 06:54:52;;;;;;;42.33;17.47;;;1.40;99.90;;;;;;4955130;28;20031;-89
2022/01/11 06:57:19;;;;;;;40.27;16.60;;;1.40;99.90;;;;;;4939151;29;20035;-89
2022/01/11 06:59:44;;;;;;;38.20;15.90;;;1.40;99.90;;;;;;4954489;28;20379;-89
2022/01/11 07:02:13;;;;;;;44.83;18.10;;;1.40;99.90;;;;;;4955026;28;20042;-89
2022/01/11 07:05:06;;;;;;;40.73;17.27;;;1.40;99.90;;;;;;4955041;29;20031;-89
2022/01/11 07:07:32;;;;;;;39.13;16.67;;;1.50;99.90;;;;;;4954592;28;20035;-89
2022/01/11 07:09:59;;;;;;;43.23;16.47;;;1.50;99.90;;;;;;4955655;29;20031;-89
2022/01/11 07:12:26;;;;;;;35.53;16.23;;;1.50;99.90;;;;;;4954629;28;20044;-89
2022/01/11 07:14:53;;;;;;;42.53;17.83;;;1.50;99.90;;;;;;4954671;29;20036;-89
2022/01/11 07:17:21;;;;;;;39.53;16.57;;;1.50;99.90;;;;;;4954646;28;20061;-88
2022/01/11 07:19:48;;;;;;;37.90;15.65;;;1.50;99.90;;;;;;4938013;29;20118;-90
2022/01/11 07:22:15;;;;;;;37.43;16.33;;;1.50;99.90;;;;;;4938746;29;20031;-90
2022/01/11 07:24:43;;;;;;;39.83;16.97;;;1.50;99.90;;;;;;4938831;29;20068;-89
2022/01/11 07:27:09;;;;;;;40.80;17.63;;;1.50;99.90;;;;;;4955392;29;20062;-89
2022/01/11 07:29:35;;;;;;;42.60;17.07;;;1.50;99.90;;;;;;4938264;29;20099;-90
2022/01/11 07:32:01;;;;;;;37.53;15.93;;;1.50;99.90;;;;;;4938411;29;20094;-89
2022/01/11 07:34:27;;;;;;;44.37;17.37;;;1.50;99.90;;;;;;4954409;29;20071;-89
2022/01/11 07:36:53;;;;;;;37.43;15.63;;;1.50;99.90;;;;;;4954298;29;20510;-90
2022/01/11 07:39:19;;;;;;;37.03;16.33;;;1.50;99.90;;;;;;4954830;29;20023;-90
2022/01/11 07:41:46;;;;;;;39.23;16.00;;;1.50;99.90;;;;;;4954106;29;20035;-89
2022/01/11 07:44:37;;;;;;;42.33;16.40;;;1.40;99.90;;;;;;4954529;29;20110;-90
2022/01/11 07:47:05;;;;;;;39.10;16.27;;;1.40;99.90;;;;;;4953867;29;20494;-89
2022/01/11 07:49:34;;;;;;;45.07;17.23;;;1.40;99.90;;;;;;4954146;29;20035;-90
2022/01/11 07:52:01;;;;;;;44.67;17.47;;;1.40;99.90;;;;;;4954118;28;20039;-89
2022/01/11 07:54:27;;;;;;;45.37;16.57;;;1.50;99.90;;;;;;4954143;29;20118;-89
2022/01/11 07:56:53;;;;;;;39.10;16.87;;;1.40;99.90;;;;;;4954073;28;20114;-89
2022/01/11 07:59:20;;;;;;;41.47;17.20;;;1.40;99.90;;;;;;4954178;29;20027;-90
2022/01/11 08:01:47;;;;;;;38.47;17.13;;;1.50;99.90;;;;;;4953713;28;20043;-89
2022/01/11 08:04:15;;;;;;;38.60;16.80;;;1.40;99.90;;;;;;4953485;29;20494;-90
2022/01/11 08:06:47;;;;;;;41.23;17.50;;;1.30;99.90;;;;;;4954037;29;20097;-89
2022/01/11 08:09:26;;;;;;;40.27;16.80;;;1.40;99.90;;;;;;4951592;28;20094;-89
2022/01/11 08:11:56;;;;;;;41.63;16.93;;;1.30;99.90;;;;;;4952951;28;20074;-89
2022/01/11 08:14:25;;;;;;;43.10;17.97;;;1.30;99.90;;;;;;4953484;28;20494;-90
2022/01/11 08:16:52;;;;;;;39.50;16.83;;;1.40;99.90;;;;;;4953353;29;20063;-89
2022/01/11 08:19:24;;;;;;;42.33;18.50;;;1.40;99.90;;;;;;4937238;29;20379;-89
2022/01/11 08:21:55;;;;;;;42.73;18.13;;;1.40;99.90;;;;;;4953375;29;20023;-89
2022/01/11 08:24:24;;;;;;;37.67;16.83;;;1.40;99.90;;;;;;4923189;29;20458;-90
2022/01/11 08:26:53;;;;;;;40.87;18.17;;;1.40;99.90;;;;;;4937545;29;20596;-89
2022/01/11 08:29:20;;;;;;;46.42;17.73;;;1.40;99.90;;;;;;4953049;28;20023;-88
2022/01/11 08:31:50;;;;;;;36.90;17.00;;;1.50;99.90;;;;;;4952713;29;20536;-89
2022/01/11 08:34:16;;;;;;;40.40;18.13;;;1.50;99.90;;;;;;4953200;28;20043;-90
2022/01/11 08:36:48;;;;;;;43.67;18.70;;;1.40;99.90;;;;;;4954211;28;20027;-90
2022/01/11 08:39:15;;;;;;;40.33;17.73;;;1.50;99.90;;;;;;4936846;29;20023;-89
2022/01/11 08:41:42;;;;;;;43.40;18.27;;;1.50;99.90;;;;;;4937385;29;20122;-89
2022/01/11 08:44:12;;;;;;;47.33;18.67;;;1.50;99.90;;;;;;4953078;29;20031;-89
2022/01/11 08:46:41;;;;;;;44.10;18.70;;;1.50;99.90;;;;;;4953003;29;20059;-89
2022/01/11 08:49:13;;;;;;;44.00;19.23;;;1.50;99.90;;;;;;4952241;29;20402;-90
2022/01/11 08:51:40;;;;;;;47.53;19.17;;;1.50;99.90;;;;;;4953298;29;20035;-89
2022/01/11 08:54:07;;;;;;;44.33;18.77;;;1.50;99.90;;;;;;4954500;29;20509;-89
2022/01/11 08:56:34;;;;;;;43.97;18.53;;;1.50;99.90;;;;;;4955860;28;20028;-89
2022/01/11 08:59:00;;;;;;;42.83;18.97;;;1.50;99.90;;;;;;4955879;28;20106;-89
2022/01/11 09:01:31;;;;;;;42.80;18.13;;;1.60;99.90;;;;;;4952816;29;20090;-89
2022/01/11 09:03:59;;;;;;;41.17;17.77;;;1.60;99.90;;;;;;4953518;28;20439;-89
2022/01/11 09:06:25;;;;;;;44.37;18.97;;;1.60;99.90;;;;;;4953739;29;20033;-89
2022/01/11 09:08:53;;;;;;;44.03;17.93;;;1.60;99.90;;;;;;4952662;29;20458;-89
2022/01/11 09:11:20;;;;;;;43.20;18.60;;;1.60;99.90;;;;;;4952389;28;20147;-89
2022/01/11 09:13:48;;;;;;;40.63;18.87;;;1.60;99.90;;;;;;4953640;28;20267;-89
2022/01/11 09:16:15;;;;;;;44.33;17.67;;;1.60;99.90;;;;;;4936945;29;20126;-89
2022/01/11 09:18:44;;;;;;;;;;;1.70;99.90;;;;;;4936681;29;20030;-89
2022/01/11 09:21:10;;;;;;;38.73;16.83;;;1.70;99.90;;;;;;4952682;28;19910;-89
2022/01/11 09:23:38;;;;;;;42.97;18.43;;;1.70;99.90;;;;;;4955818;28;20123;-89
2022/01/11 09:26:04;;;;;;;37.43;17.40;;;1.70;99.90;;;;;;4956656;28;20035;-90
2022/01/11 09:28:37;;;;;;;39.03;17.57;;;1.70;99.90;;;;;;4956558;29;20028;-90
2022/01/11 09:31:03;;;;;;;39.53;17.27;;;1.70;99.90;;;;;;4956970;28;20028;-90
2022/01/11 09:33:29;;;;;;;39.57;17.17;;;1.80;99.90;;;;;;4956970;29;20035;-89
2022/01/11 09:35:55;;;;;;;41.03;18.83;;;1.80;99.90;;;;;;4956346;29;20501;-90
2022/01/11 09:38:24;;;;;;;40.70;17.87;;;1.80;99.90;;;;;;4955676;29;20031;-89
2022/01/11 09:40:56;;;;;;;40.00;18.90;;;1.90;99.90;;;;;;4956191;28;20031;-89
2022/01/11 09:43:26;;;;;;;37.13;17.67;;;1.90;99.90;;;;;;4956177;29;20065;-89
2022/01/11 09:45:59;;;;;;;35.10;16.73;;;1.90;99.90;;;;;;4955619;29;20393;-89
2022/01/11 09:48:28;;;;;;;36.97;18.10;;;1.90;99.90;;;;;;4955882;29;20027;-89
2022/01/11 09:50:56;;;;;;;41.53;18.33;;;1.90;99.90;;;;;;4956120;28;20032;-89
2022/01/11 09:53:22;;;;;;;39.50;18.07;;;2.00;99.90;;;;;;4940367;29;20057;-89
2022/01/11 09:55:49;;;;;;;40.07;18.00;;;1.90;99.90;;;;;;4956159;29;20126;-89
2022/01/11 09:58:18;;;;;;;38.67;17.90;;;1.90;99.90;;;;;;4955294;28;20045;-89
2022/01/11 10:00:52;;;;;;;38.93;17.83;;;1.90;99.90;;;;;;4957415;29;20035;-90
2022/01/11 10:04:00;;;;;;;40.37;17.83;;;2.00;99.90;;;;;;4951562;29;20038;-89
2022/01/11 10:06:42;;;;;;;42.13;18.17;;;2.00;99.90;;;;;;4954350;29;20031;-90
2022/01/11 10:09:11;;;;;;;44.20;18.10;;;2.00;99.90;;;;;;4939757;29;20031;-89
2022/01/11 10:11:41;;;;;;;40.42;18.90;;;2.10;99.90;;;;;;4955915;29;20489;-89
2022/01/11 10:14:22;;;;;;;37.87;17.60;;;2.10;99.90;;;;;;4955806;29;20094;-89
2022/01/11 10:16:50;;;;;;;39.80;17.37;;;2.10;99.90;;;;;;4955996;28;20644;-90
2022/01/11 10:19:28;;;;;;;40.57;17.97;;;2.10;99.90;;;;;;4955529;29;20027;-90
2022/01/11 10:21:57;;;;;;;37.93;17.70;;;2.20;99.90;;;;;;4955916;29;20054;-90
2022/01/11 10:24:36;;;;;;;41.57;18.93;;;2.20;99.90;;;;;;4955209;29;20024;-89
2022/01/11 10:27:18;;;;;;;39.70;17.63;;;2.20;99.90;;;;;;4955319;29;20126;-89
2022/01/11 10:29:59;;;;;;;44.10;19.13;;;2.20;99.90;;;;;;4955151;29;20031;-89
2022/01/11 10:32:35;;;;;;;42.47;19.60;;;2.20;99.90;;;;;;4955690;28;20058;-90
2022/01/11 10:35:19;;;;;;;43.27;19.70;;;2.30;99.90;;;;;;4953536;28;20039;-89
2022/01/11 10:37:55;;;;;;;42.53;18.87;;;2.30;99.90;;;;;;4939247;29;20031;-89
2022/01/11 10:40:26;;;;;;;41.10;18.70;;;2.30;99.90;;;;;;4955949;29;20023;-89
2022/01/11 10:42:59;;;;;;;41.73;19.17;;;2.30;99.90;;;;;;4955280;29;20434;-90
2022/01/11 10:45:33;;;;;;;41.00;19.53;;;2.30;99.90;;;;;;4955531;29;20038;-90
2022/01/11 10:48:05;;;;;;;42.47;17.67;;;2.40;99.90;;;;;;4955118;29;20035;-89
2022/01/11 10:50:34;;;;;;;39.20;17.17;;;2.40;99.90;;;;;;4971103;29;20398;-89
2022/01/11 10:53:05;;;;;;;;;;;2.40;99.90;;;;;;4963982;29;20031;-90
2022/01/11 10:55:34;;;;;;;42.07;18.23;;;2.40;99.90;;;;;;4940082;29;19910;-89
2022/01/11 10:58:06;;;;;;;40.83;17.93;;;2.50;99.90;;;;;;4954975;29;20051;-89
2022/01/11 11:00:34;;;;;;;38.57;18.03;;;2.50;99.90;;;;;;4955183;29;20027;-90
2022/01/11 11:03:14;;;;;;;41.33;19.00;;;2.60;99.90;;;;;;4938997;29;20047;-90
2022/01/11 11:05:53;;;;;;;41.13;18.70;;;2.70;99.90;;;;;;4954972;29;20027;-89
2022/01/11 11:08:31;;;;;;;39.15;17.70;;;2.70;99.90;;;;;;4954155;29;20035;-90
2022/01/11 11:11:20;;;;;;;40.87;18.30;;;2.70;99.90;;;;;;4953943;29;20062;-90
2022/01/11 11:13:57;;;;;;;37.30;17.13;;;2.70;99.90;;;;;;4953808;29;20034;-90
2022/01/11 11:16:28;;;;;;;36.38;17.00;;;2.80;99.90;;;;;;4954819;29;20066;-89
2022/01/11 11:18:58;;;;;;;38.17;16.77;;;2.80;99.90;;;;;;4954143;29;20035;-89
2022/01/11 11:21:40;;;;;;;40.20;18.13;;;2.80;99.90;;;;;;4941419;29;20430;-90
2022/01/11 11:24:08;;;;;;;35.93;17.13;;;2.90;99.90;;;;;;4955488;29;20035;-89
2022/01/11 11:26:39;;;;;;;36.17;16.77;;;2.90;99.90;;;;;;4955436;28;20038;-89
2022/01/11 11:29:07;;;;;;;38.50;17.70;;;2.90;99.90;;;;;;4955004;29;20034;-89
2022/01/11 11:31:34;;;;;;;38.67;16.47;;;3.00;99.90;;;;;;4954916;28;20034;-90
2022/01/11 11:34:04;;;;;;;37.30;17.33;;;3.00;99.90;;;;;;4980430;23;20031;-89
2022/01/11 11:36:30;;;;;;;35.43;16.97;;;3.00;99.90;;;;;;4921189;29;20130;-90
2022/01/11 11:39:03;;;;;;;39.27;17.53;;;3.10;99.90;;;;;;4939040;29;20478;-90
2022/01/11 11:41:31;;;;;;;36.47;16.47;;;3.10;99.90;;;;;;4938525;29;20039;-90
2022/01/11 11:44:10;;;;;;;38.20;17.00;;;3.10;99.90;;;;;;4938409;29;20069;-90
2022/01/11 11:47:02;;;;;;;33.80;16.23;;;3.20;99.90;;;;;;4953758;28;20031;-88
2022/01/11 11:49:43;;;;;;;29.97;13.97;;;3.20;99.90;;;;;;4918152;29;20079;-89
2022/01/11 11:52:39;;;;;;;30.70;14.80;;;3.20;99.90;;;;;;4954286;29;20094;-90
2022/01/11 11:55:20;;;;;;;28.00;13.67;;;3.20;99.90;;;;;;4954228;29;20039;-90
2022/01/11 11:57:49;;;;;;;30.93;14.03;;;3.30;99.90;;;;;;4954029;29;20430;-90
2022/01/11 12:00:25;;;;;;;29.15;14.45;;;3.30;99.90;;;;;;4954072;28;20124;-90
2022/01/11 12:02:54;;;;;;;29.83;13.50;;;3.40;99.90;;;;;;4938211;29;20036;-90
2022/01/11 12:05:34;;;;;;;28.50;13.30;;;3.40;99.90;;;;;;4954292;29;20027;-90
2022/01/11 12:08:24;;;;;;;29.67;12.87;;;3.40;99.90;;;;;;4953970;28;20035;-90
2022/01/11 12:10:53;;;;;;;29.93;13.47;;;3.40;99.90;;;;;;4916009;29;20066;-89
2022/01/11 12:13:48;;;;;;;28.08;12.57;;;3.50;99.90;;;;;;4953779;28;20134;-90
2022/01/11 12:16:25;;;;;;;27.50;12.83;;;3.50;99.90;;;;;;4929771;29;20039;-90
2022/01/11 12:19:02;;;;;;;26.47;13.00;;;3.60;99.90;;;;;;4953642;29;20095;-90
2022/01/11 12:21:37;;;;;;;26.17;12.53;;;3.70;99.90;;;;;;4954227;29;20428;-90
2022/01/11 12:24:03;;;;;;;22.60;12.00;;;3.70;99.90;;;;;;4953464;29;20032;-90
2022/01/11 12:26:34;;;;;;;24.57;12.70;;;3.70;99.90;;;;;;4953575;28;20031;-90
2022/01/11 12:29:03;;;;;;;27.17;13.33;;;3.70;99.90;;;;;;4953323;29;20039;-90
2022/01/11 12:31:34;;;;;;;28.27;13.00;;;3.80;99.90;;;;;;4953514;29;20043;-90
2022/01/11 12:34:02;;;;;;;24.80;12.60;;;3.80;99.90;;;;;;4953316;28;20146;-90
2022/01/11 12:36:53;;;;;;;27.17;12.57;;;3.80;99.90;;;;;;4952966;29;20106;-90
2022/01/11 12:39:21;;;;;;;24.83;11.83;;;3.80;99.90;;;;;;4953087;28;20031;-90
2022/01/11 12:41:49;;;;;;;24.90;12.20;;;3.90;99.90;;;;;;4953049;28;20043;-90
2022/01/11 12:47:05;;;;;;;23.27;12.80;;;3.90;99.90;;;;;;4953167;29;20031;-90
2022/01/11 12:49:32;;;;;;;23.53;11.37;;;3.90;99.90;;;;;;4937333;29;20066;-90
2022/01/11 12:52:14;;;;;;;23.20;12.03;;;3.90;99.90;;;;;;4953283;28;20039;-90
2022/01/11 12:54:43;;;;;;;21.73;11.37;;;3.90;99.90;;;;;;4953499;29;20031;-90
2022/01/11 12:57:14;;;;;;;23.20;11.15;;;4.00;99.90;;;;;;4952784;28;20134;-90